createdAt,value
2019-05-25T00:00:06.622Z,12.42
2019-05-25T00:01:06.612Z,12.42
2019-05-25T00:02:06.599Z,12.39
2019-05-25T00:03:06.621Z,12.37
2019-05-25T00:04:06.579Z,12.39
2019-05-25T00:05:06.566Z,12.31
2019-05-25T00:06:06.558Z,12.37
2019-05-25T00:07:06.540Z,12.24
2019-05-25T00:08:06.549Z,12.21
2019-05-25T00:09:06.532Z,12.28
2019-05-25T00:10:06.509Z,12.27
2019-05-25T00:11:06.508Z,12.32
2019-05-25T00:12:06.504Z,12.17
2019-05-25T00:13:06.497Z,12.13
2019-05-25T00:14:06.490Z,12.19
2019-05-25T00:15:06.453Z,12.12
2019-05-25T00:16:06.448Z,12.10
2019-05-25T00:17:06.491Z,11.98
2019-05-25T00:18:06.450Z,12.01
2019-05-25T00:19:06.408Z,11.86
2019-05-25T00:20:06.420Z,11.86
2019-05-25T00:21:06.394Z,11.79
2019-05-25T00:22:06.400Z,11.78
2019-05-25T00:23:06.374Z,11.78
2019-05-25T00:24:12.341Z,11.82
2019-05-25T00:25:07.348Z,11.79
2019-05-25T00:26:06.341Z,11.73
2019-05-25T00:27:06.328Z,11.73
2019-05-25T00:28:06.318Z,11.64
2019-05-25T00:29:06.326Z,11.65
2019-05-25T00:30:06.295Z,11.62
2019-05-25T00:31:06.336Z,11.51
2019-05-25T00:32:06.273Z,11.58
2019-05-25T00:33:06.261Z,11.54
2019-05-25T00:34:06.263Z,11.54
2019-05-25T00:35:06.258Z,11.54
2019-05-25T00:36:06.230Z,11.46
2019-05-25T00:37:06.227Z,11.47
2019-05-25T00:38:06.207Z,11.54
2019-05-25T00:39:06.211Z,11.54
2019-05-25T00:40:06.189Z,11.49
2019-05-25T00:41:06.172Z,11.43
2019-05-25T00:42:06.174Z,11.51
2019-05-25T00:43:06.156Z,11.42
2019-05-25T00:44:06.313Z,11.44
2019-05-25T00:45:06.158Z,11.46
2019-05-25T00:46:06.117Z,11.36
2019-05-25T00:47:06.110Z,11.35
2019-05-25T00:48:06.101Z,11.33
2019-05-25T00:49:06.113Z,11.32
2019-05-25T00:50:06.076Z,11.29
2019-05-25T00:51:06.066Z,11.29
2019-05-25T00:52:06.056Z,11.32
2019-05-25T00:53:06.045Z,11.35
2019-05-25T00:54:06.064Z,11.32
2019-05-25T00:55:06.028Z,11.32
2019-05-25T00:56:06.015Z,11.24
2019-05-25T00:57:06.008Z,11.32
2019-05-25T00:58:06.000Z,11.35
2019-05-25T00:59:06.003Z,11.32
2019-05-25T01:00:05.997Z,11.29
2019-05-25T01:01:06.376Z,11.35
2019-05-25T01:02:05.994Z,11.37
2019-05-25T01:03:05.939Z,11.32
2019-05-25T01:04:05.959Z,11.37
2019-05-25T01:05:05.913Z,11.35
2019-05-25T01:06:05.909Z,11.25
2019-05-25T01:07:05.896Z,11.28
2019-05-25T01:08:05.904Z,11.28
2019-05-25T01:09:05.893Z,11.15
2019-05-25T01:10:05.858Z,11.25
2019-05-25T01:11:05.854Z,11.25
2019-05-25T01:12:05.838Z,11.36
2019-05-25T01:13:05.825Z,11.21
2019-05-25T01:14:05.839Z,11.25
2019-05-25T01:15:05.819Z,11.27
2019-05-25T01:16:05.801Z,11.29
2019-05-25T01:17:05.790Z,11.22
2019-05-25T01:18:05.773Z,11.21
2019-05-25T01:19:05.778Z,11.24
2019-05-25T01:20:05.756Z,11.17
2019-05-25T01:21:05.758Z,11.21
2019-05-25T01:22:05.731Z,11.10
2019-05-25T01:23:05.720Z,11.11
2019-05-25T01:24:05.723Z,11.27
2019-05-25T01:25:05.697Z,11.10
2019-05-25T01:26:05.692Z,11.11
2019-05-25T01:27:05.680Z,11.18
2019-05-25T01:28:05.671Z,11.04
2019-05-25T01:29:05.674Z,11.14
2019-05-25T01:30:05.641Z,11.17
2019-05-25T01:31:05.663Z,11.03
2019-05-25T01:32:05.622Z,11.07
2019-05-25T01:33:05.621Z,11.03
2019-05-25T01:34:05.621Z,11.00
2019-05-25T01:35:05.593Z,10.97
2019-05-25T01:36:05.581Z,11.00
2019-05-25T01:37:05.571Z,11.09
2019-05-25T01:38:05.562Z,11.09
2019-05-25T01:39:05.568Z,11.03
2019-05-25T01:40:05.541Z,11.02
2019-05-25T01:41:05.531Z,10.97
2019-05-25T01:42:05.511Z,10.99
2019-05-25T01:43:05.506Z,10.92
2019-05-25T01:44:05.519Z,10.86
2019-05-25T01:45:05.482Z,10.88
2019-05-25T01:46:05.477Z,10.99
2019-05-25T01:47:05.465Z,10.86
2019-05-25T01:48:05.455Z,11.00
2019-05-25T01:49:05.459Z,11.07
2019-05-25T01:50:05.440Z,11.07
2019-05-25T01:51:05.418Z,11.03
2019-05-25T01:52:05.414Z,10.97
2019-05-25T01:53:05.404Z,10.94
2019-05-25T01:54:05.413Z,10.94
2019-05-25T01:55:05.375Z,10.91
2019-05-25T01:56:05.366Z,10.73
2019-05-25T01:57:05.350Z,10.84
2019-05-25T01:58:05.352Z,10.88
2019-05-25T01:59:05.337Z,10.86
2019-05-25T02:00:05.423Z,10.86
2019-05-25T02:01:05.314Z,10.85
2019-05-25T02:02:05.296Z,10.76
2019-05-25T02:03:05.292Z,10.74
2019-05-25T02:04:05.277Z,10.67
2019-05-25T02:05:05.301Z,10.56
2019-05-25T02:06:05.260Z,10.53
2019-05-25T02:07:05.274Z,10.59
2019-05-25T02:08:05.236Z,10.66
2019-05-25T02:09:05.223Z,10.59
2019-05-25T02:10:05.236Z,10.55
2019-05-25T02:11:05.207Z,10.60
2019-05-25T02:12:05.194Z,10.53
2019-05-25T02:13:05.185Z,10.56
2019-05-25T02:14:05.172Z,10.60
2019-05-25T02:15:05.177Z,10.45
2019-05-25T02:16:05.156Z,10.47
2019-05-25T02:17:05.159Z,10.42
2019-05-25T02:18:05.134Z,10.38
2019-05-25T02:19:05.120Z,10.33
2019-05-25T02:20:05.130Z,10.29
2019-05-25T02:21:05.100Z,10.33
2019-05-25T02:22:05.081Z,10.30
2019-05-25T02:23:05.073Z,10.30
2019-05-25T02:24:05.066Z,10.32
2019-05-25T02:25:16.896Z,10.32
2019-05-25T02:26:06.054Z,10.18
2019-05-25T02:27:05.099Z,10.25
2019-05-25T02:28:05.020Z,10.22
2019-05-25T02:29:05.007Z,10.18
2019-05-25T02:30:05.042Z,10.20
2019-05-25T02:31:04.990Z,10.17
2019-05-25T02:32:04.978Z,10.08
2019-05-25T02:33:04.971Z,10.08
2019-05-25T02:34:04.953Z,10.08
2019-05-25T02:35:04.960Z,10.15
2019-05-25T02:36:04.934Z,10.15
2019-05-25T02:37:04.920Z,10.08
2019-05-25T02:38:04.916Z,10.15
2019-05-25T02:39:04.918Z,10.09
2019-05-25T02:40:04.923Z,10.12
2019-05-25T02:41:04.878Z,10.09
2019-05-25T02:42:04.878Z,10.15
2019-05-25T02:43:04.867Z,10.12
2019-05-25T02:44:04.849Z,10.09
2019-05-25T02:45:04.856Z,10.05
2019-05-25T02:46:04.823Z,10.05
2019-05-25T02:47:04.817Z,10.07
2019-05-25T02:48:04.803Z,10.11
2019-05-25T02:49:04.794Z,9.99
2019-05-25T02:50:04.803Z,10.08
2019-05-25T02:51:04.780Z,10.05
2019-05-25T02:52:04.764Z,9.96
2019-05-25T02:53:04.779Z,10.02
2019-05-25T02:54:04.738Z,10.01
2019-05-25T02:55:04.745Z,10.05
2019-05-25T02:56:04.767Z,10.02
2019-05-25T02:57:04.712Z,10.17
2019-05-25T02:58:04.703Z,9.94
2019-05-25T02:59:04.685Z,10.02
2019-05-25T03:00:04.804Z,10.02
2019-05-25T03:01:04.661Z,10.09
2019-05-25T03:02:04.662Z,10.04
2019-05-25T03:03:04.678Z,9.99
2019-05-25T03:04:04.634Z,10.02
2019-05-25T03:05:04.648Z,10.05
2019-05-25T03:06:04.642Z,10.05
2019-05-25T03:07:04.599Z,9.89
2019-05-25T03:08:04.592Z,9.96
2019-05-25T03:09:04.576Z,10.01
2019-05-25T03:10:04.588Z,9.87
2019-05-25T03:11:04.561Z,9.84
2019-05-25T03:12:04.600Z,9.90
2019-05-25T03:13:04.535Z,9.86
2019-05-25T03:14:04.528Z,9.81
2019-05-25T03:15:04.795Z,9.74
2019-05-25T03:16:04.513Z,9.84
2019-05-25T03:17:04.496Z,9.69
2019-05-25T03:18:04.486Z,9.76
2019-05-25T03:19:04.471Z,9.71
2019-05-25T03:20:04.476Z,9.68
2019-05-25T03:21:04.446Z,9.71
2019-05-25T03:22:04.445Z,9.65
2019-05-25T03:23:04.432Z,9.57
2019-05-25T03:24:04.420Z,9.60
2019-05-25T03:25:04.433Z,9.61
2019-05-25T03:26:04.534Z,9.64
2019-05-25T03:27:04.387Z,9.71
2019-05-25T03:28:04.382Z,9.57
2019-05-25T03:29:04.369Z,9.65
2019-05-25T03:30:04.351Z,9.57
2019-05-25T03:31:04.359Z,9.58
2019-05-25T03:32:04.338Z,9.69
2019-05-25T03:33:04.328Z,9.61
2019-05-25T03:34:04.331Z,9.64
2019-05-25T03:35:04.303Z,9.74
2019-05-25T03:36:04.307Z,9.60
2019-05-25T03:37:04.283Z,9.74
2019-05-25T03:38:04.266Z,9.65
2019-05-25T03:39:04.275Z,9.69
2019-05-25T03:40:04.248Z,9.74
2019-05-25T03:41:04.248Z,9.68
2019-05-25T03:42:04.228Z,9.81
2019-05-25T03:43:04.219Z,9.69
2019-05-25T03:44:04.202Z,9.68
2019-05-25T03:45:04.189Z,9.76
2019-05-25T03:46:04.227Z,9.71
2019-05-25T03:47:04.219Z,9.72
2019-05-25T03:48:04.162Z,9.71
2019-05-25T03:49:04.173Z,9.72
2019-05-25T03:50:04.163Z,9.72
2019-05-25T03:51:04.145Z,9.84
2019-05-25T03:52:04.179Z,9.72
2019-05-25T03:53:04.102Z,9.74
2019-05-25T03:54:04.107Z,9.79
2019-05-25T03:55:04.086Z,9.87
2019-05-25T03:56:06.258Z,9.90
2019-05-25T03:57:04.069Z,9.86
2019-05-25T03:58:04.048Z,9.84
2019-05-25T03:59:04.039Z,9.93
2019-05-25T04:00:04.033Z,9.94
2019-05-25T04:01:04.039Z,10.01
2019-05-25T04:02:04.022Z,10.01
2019-05-25T04:03:04.001Z,10.09
2019-05-25T04:04:03.986Z,10.01
2019-05-25T04:05:03.975Z,10.11
2019-05-25T04:06:04.054Z,9.97
2019-05-25T04:07:03.958Z,9.99
2019-05-25T04:08:03.949Z,10.05
2019-05-25T04:09:03.937Z,10.23
2019-05-25T04:10:03.935Z,10.27
2019-05-25T04:11:03.925Z,10.44
2019-05-25T04:12:03.926Z,10.38
2019-05-25T04:13:03.889Z,10.40
2019-05-25T04:14:03.885Z,10.30
2019-05-25T04:15:03.872Z,10.41
2019-05-25T04:16:03.871Z,10.41
2019-05-25T04:17:03.844Z,10.40
2019-05-25T04:18:03.846Z,10.47
2019-05-25T04:19:03.835Z,10.55
2019-05-25T04:20:03.816Z,10.67
2019-05-25T04:21:03.825Z,10.79
2019-05-25T04:22:03.792Z,10.76
2019-05-25T04:23:03.787Z,10.73
2019-05-25T04:24:03.770Z,10.71
2019-05-25T04:25:03.774Z,10.74
2019-05-25T04:26:03.807Z,10.88
2019-05-25T04:27:03.746Z,11.04
2019-05-25T04:28:03.729Z,11.25
2019-05-25T04:29:03.725Z,11.43
2019-05-25T04:30:03.703Z,11.69
2019-05-25T04:31:03.723Z,12.13
2019-05-25T04:32:03.688Z,12.54
2019-05-25T04:33:03.681Z,13.08
2019-05-25T04:34:03.664Z,13.67
2019-05-25T04:35:03.694Z,14.29
2019-05-25T04:36:03.661Z,14.98
2019-05-25T04:37:03.627Z,15.46
2019-05-25T04:38:03.627Z,15.92
2019-05-25T04:39:03.612Z,16.15
2019-05-25T04:40:03.604Z,16.27
2019-05-25T04:41:04.454Z,16.25
2019-05-25T04:42:03.578Z,15.93
2019-05-25T04:43:03.563Z,15.54
2019-05-25T04:44:03.556Z,15.28
2019-05-25T04:45:03.544Z,15.27
2019-05-25T04:46:03.540Z,15.06
2019-05-25T04:47:03.548Z,15.17
2019-05-25T04:48:03.544Z,15.34
2019-05-25T04:49:03.513Z,15.62
2019-05-25T04:50:03.507Z,15.96
2019-05-25T04:51:03.491Z,16.35
2019-05-25T04:52:03.510Z,16.91
2019-05-25T04:53:03.473Z,17.26
2019-05-25T04:54:03.452Z,17.72
2019-05-25T04:55:03.451Z,18.03
2019-05-25T04:56:03.431Z,18.45
2019-05-25T04:57:03.832Z,18.44
2019-05-25T04:58:03.446Z,18.42
2019-05-25T04:59:03.427Z,18.75
2019-05-25T05:00:03.391Z,19.04
2019-05-25T05:01:03.378Z,19.13
2019-05-25T05:02:03.384Z,19.25
2019-05-25T05:03:03.351Z,19.29
2019-05-25T05:04:03.361Z,19.33
2019-05-25T05:05:03.330Z,19.41
2019-05-25T05:06:03.319Z,19.54
2019-05-25T05:07:03.319Z,19.46
2019-05-25T05:08:03.296Z,19.26
2019-05-25T05:09:03.293Z,19.18
2019-05-25T05:10:03.545Z,19.13
2019-05-25T05:11:03.291Z,18.98
2019-05-25T05:12:03.278Z,18.82
2019-05-25T05:13:03.249Z,18.95
2019-05-25T05:14:03.242Z,18.84
2019-05-25T05:15:03.223Z,19.11
2019-05-25T05:16:03.215Z,19.08
2019-05-25T05:17:03.451Z,19.14
2019-05-25T05:18:03.197Z,19.13
2019-05-25T05:19:03.190Z,19.11
2019-05-25T05:20:03.169Z,19.16
2019-05-25T05:21:03.192Z,19.13
2019-05-25T05:22:05.817Z,18.42
2019-05-25T05:23:03.158Z,18.32
2019-05-25T05:24:03.137Z,17.92
2019-05-25T05:25:03.135Z,18.18
2019-05-25T05:26:03.107Z,18.15
2019-05-25T05:27:04.242Z,18.39
2019-05-25T05:28:03.082Z,18.54
2019-05-25T05:29:03.073Z,18.41
2019-05-25T05:30:03.067Z,18.82
2019-05-25T05:31:03.063Z,18.80
2019-05-25T05:32:03.227Z,18.72
2019-05-25T05:33:03.034Z,18.87
2019-05-25T05:34:03.048Z,18.63
2019-05-25T05:35:03.008Z,17.68
2019-05-25T05:36:03.004Z,17.44
2019-05-25T05:37:04.393Z,17.84
2019-05-25T05:38:02.996Z,16.86
2019-05-25T05:39:02.994Z,16.88
2019-05-25T05:40:02.975Z,16.88
2019-05-25T05:41:02.981Z,17.92
2019-05-25T05:42:04.261Z,18.67
2019-05-25T05:43:02.929Z,19.41
2019-05-25T05:44:02.938Z,19.80
2019-05-25T05:45:02.908Z,20.08
2019-05-25T05:46:02.901Z,20.57
2019-05-25T05:47:04.362Z,20.67
2019-05-25T05:48:02.865Z,21.16
2019-05-25T05:49:02.859Z,20.41
2019-05-25T05:50:02.865Z,20.61
2019-05-25T05:51:02.842Z,21.03
2019-05-25T05:52:04.247Z,20.88
2019-05-25T05:53:02.867Z,20.69
2019-05-25T05:54:02.863Z,20.39
2019-05-25T05:55:02.812Z,20.05
2019-05-25T05:56:02.787Z,19.78
2019-05-25T05:57:11.880Z,20.03
2019-05-25T05:58:04.172Z,20.48
2019-05-25T05:59:02.768Z,19.83
2019-05-25T06:00:02.758Z,19.32
2019-05-25T06:01:02.734Z,19.32
2019-05-25T06:02:02.730Z,19.36
2019-05-25T06:03:04.122Z,19.65
2019-05-25T06:04:02.714Z,19.96
2019-05-25T06:05:03.165Z,19.95
2019-05-25T06:06:02.690Z,20.32
2019-05-25T06:07:02.684Z,19.92
2019-05-25T06:08:04.060Z,19.26
2019-05-25T06:09:02.655Z,19.25
2019-05-25T06:10:02.641Z,18.95
2019-05-25T06:11:02.639Z,18.90
2019-05-25T06:12:02.626Z,18.82
2019-05-25T06:13:04.338Z,18.94
2019-05-25T06:14:02.595Z,19.47
2019-05-25T06:15:02.696Z,19.46
2019-05-25T06:16:02.576Z,19.91
2019-05-25T06:17:02.560Z,20.20
2019-05-25T06:18:02.574Z,19.99
2019-05-25T06:19:02.548Z,20.11
2019-05-25T06:20:02.551Z,19.56
2019-05-25T06:21:02.534Z,19.59
2019-05-25T06:22:02.551Z,20.05
2019-05-25T06:23:06.916Z,20.62
2019-05-25T06:24:03.483Z,20.87
2019-05-25T06:25:02.474Z,20.94
2019-05-25T06:26:02.487Z,20.79
2019-05-25T06:27:02.459Z,20.80
2019-05-25T06:28:04.341Z,20.70
2019-05-25T06:29:02.438Z,20.64
2019-05-25T06:30:02.438Z,19.99
2019-05-25T06:31:02.414Z,19.65
2019-05-25T06:32:02.414Z,19.73
2019-05-25T06:33:03.982Z,19.88
2019-05-25T06:34:02.381Z,20.48
2019-05-25T06:35:02.384Z,20.85
2019-05-25T06:36:02.368Z,21.29
2019-05-25T06:37:02.354Z,21.53
2019-05-25T06:38:04.208Z,21.59
2019-05-25T06:39:02.331Z,21.65
2019-05-25T06:40:02.319Z,20.91
2019-05-25T06:41:02.307Z,21.14
2019-05-25T06:42:02.493Z,20.88
2019-05-25T06:43:04.181Z,20.29
2019-05-25T06:44:02.292Z,20.20
2019-05-25T06:45:02.281Z,20.01
2019-05-25T06:46:02.253Z,20.73
2019-05-25T06:47:02.257Z,21.67
2019-05-25T06:48:04.205Z,21.77
2019-05-25T06:49:02.229Z,21.82
2019-05-25T06:50:02.208Z,21.31
2019-05-25T06:51:02.235Z,20.95
2019-05-25T06:52:02.196Z,21.28
2019-05-25T06:53:04.339Z,21.83
2019-05-25T06:54:02.172Z,21.09
2019-05-25T06:55:02.170Z,20.50
2019-05-25T06:56:02.157Z,20.48
2019-05-25T06:57:02.140Z,20.77
2019-05-25T06:58:04.040Z,21.65
2019-05-25T06:59:02.120Z,22.17
2019-05-25T07:00:02.129Z,22.58
2019-05-25T07:01:02.109Z,23.00
2019-05-25T07:02:02.091Z,23.47
2019-05-25T07:03:03.936Z,23.60
2019-05-25T07:04:02.120Z,22.60
2019-05-25T07:05:02.063Z,21.86
2019-05-25T07:06:02.041Z,21.49
2019-05-25T07:07:02.045Z,21.82
2019-05-25T07:08:04.317Z,21.68
2019-05-25T07:09:02.006Z,21.62
2019-05-25T07:10:02.000Z,21.68
2019-05-25T07:11:01.994Z,21.82
2019-05-25T07:12:01.981Z,22.20
2019-05-25T07:13:04.316Z,21.86
2019-05-25T07:14:01.951Z,21.74
2019-05-25T07:15:01.942Z,21.86
2019-05-25T07:16:01.979Z,22.24
2019-05-25T07:17:01.934Z,22.54
2019-05-25T07:18:03.043Z,21.65
2019-05-25T07:19:01.911Z,21.56
2019-05-25T07:20:01.894Z,21.29
2019-05-25T07:21:01.878Z,21.64
2019-05-25T07:22:01.865Z,22.33
2019-05-25T07:23:01.864Z,22.31
2019-05-25T07:24:03.076Z,22.06
2019-05-25T07:25:01.870Z,22.36
2019-05-25T07:26:01.824Z,21.53
2019-05-25T07:27:01.815Z,22.21
2019-05-25T07:28:01.795Z,22.64
2019-05-25T07:29:04.446Z,23.87
2019-05-25T07:30:01.796Z,25.09
2019-05-25T07:31:01.777Z,26.30
2019-05-25T07:32:01.761Z,27.43
2019-05-25T07:33:01.750Z,27.50
2019-05-25T07:34:03.515Z,27.18
2019-05-25T07:35:01.752Z,26.09
2019-05-25T07:36:07.023Z,25.83
2019-05-25T07:37:02.712Z,25.99
2019-05-25T07:38:01.696Z,24.69
2019-05-25T07:39:05.373Z,23.20
2019-05-25T07:40:01.697Z,22.85
2019-05-25T07:41:01.666Z,24.43
2019-05-25T07:42:01.656Z,24.16
2019-05-25T07:43:01.639Z,25.85
2019-05-25T07:44:03.222Z,27.63
2019-05-25T07:45:01.626Z,27.40
2019-05-25T07:46:01.637Z,24.46
2019-05-25T07:47:01.629Z,23.12
2019-05-25T07:48:01.603Z,24.45
2019-05-25T07:49:04.456Z,24.78
2019-05-25T07:50:01.577Z,25.28
2019-05-25T07:51:01.569Z,23.47
2019-05-25T07:52:02.716Z,22.43
2019-05-25T07:53:01.586Z,22.15
2019-05-25T07:54:03.365Z,22.61
2019-05-25T07:55:01.546Z,22.86
2019-05-25T07:56:01.529Z,23.01
2019-05-25T07:57:01.505Z,22.90
2019-05-25T07:58:15.714Z,22.80
2019-05-25T07:59:05.390Z,23.32
2019-05-25T08:00:01.476Z,23.73
2019-05-25T08:01:01.463Z,24.49
2019-05-25T08:02:01.477Z,24.27
2019-05-25T08:03:01.448Z,23.43
2019-05-25T08:04:04.430Z,23.04
2019-05-25T08:05:01.463Z,21.72
2019-05-25T08:06:01.421Z,21.56
2019-05-25T08:07:01.403Z,21.19
2019-05-25T08:08:01.961Z,21.27
2019-05-25T08:09:04.115Z,22.03
2019-05-25T08:10:01.443Z,23.63
2019-05-25T08:11:01.376Z,24.21
2019-05-25T08:12:01.387Z,23.61
2019-05-25T08:13:01.348Z,24.10
2019-05-25T08:14:04.784Z,25.03
2019-05-25T08:15:01.339Z,25.15
2019-05-25T08:16:01.353Z,24.93
2019-05-25T08:17:01.347Z,24.22
2019-05-25T08:18:01.308Z,24.62
2019-05-25T08:19:01.282Z,26.15
2019-05-25T08:20:03.344Z,25.90
2019-05-25T08:21:01.422Z,26.10
2019-05-25T08:22:01.343Z,25.65
2019-05-25T08:23:01.254Z,25.73
2019-05-25T08:24:01.248Z,25.65
2019-05-25T08:25:04.071Z,27.04
2019-05-25T08:26:01.215Z,28.31
2019-05-25T08:27:01.211Z,29.30
2019-05-25T08:28:01.193Z,29.73
2019-05-25T08:29:01.240Z,28.62
2019-05-25T08:30:03.258Z,28.06
2019-05-25T08:31:01.626Z,27.69
2019-05-25T08:32:01.162Z,27.82
2019-05-25T08:33:01.158Z,27.36
2019-05-25T08:34:01.164Z,26.95
2019-05-25T08:35:03.236Z,27.46
2019-05-25T08:36:01.155Z,29.58
2019-05-25T08:37:01.133Z,31.29
2019-05-25T08:38:01.110Z,32.47
2019-05-25T08:39:01.093Z,32.89
2019-05-25T08:40:03.335Z,32.03
2019-05-25T08:41:01.086Z,30.82
2019-05-25T08:42:01.082Z,31.92
2019-05-25T08:43:01.143Z,31.56
2019-05-25T08:44:04.238Z,30.13
2019-05-25T08:45:04.087Z,30.23
2019-05-25T08:46:01.030Z,28.22
2019-05-25T08:47:01.022Z,29.87
2019-05-25T08:48:01.047Z,29.28
2019-05-25T08:49:01.018Z,28.70
2019-05-25T08:50:04.843Z,27.14
2019-05-25T08:51:00.991Z,25.45
2019-05-25T08:52:04.089Z,26.02
2019-05-25T08:53:01.266Z,27.43
2019-05-25T08:54:00.961Z,26.72
2019-05-25T08:55:03.184Z,27.25
2019-05-25T08:56:00.973Z,29.15
2019-05-25T08:57:00.939Z,28.88
2019-05-25T08:58:00.924Z,28.89
2019-05-25T08:59:00.918Z,28.46
2019-05-25T09:00:04.330Z,27.69
2019-05-25T09:01:00.930Z,26.57
2019-05-25T09:02:00.904Z,26.99
2019-05-25T09:03:00.872Z,27.78
2019-05-25T09:04:00.874Z,28.76
2019-05-25T09:05:03.203Z,29.79
2019-05-25T09:06:00.849Z,28.39
2019-05-25T09:07:00.839Z,27.55
2019-05-25T09:08:00.830Z,26.21
2019-05-25T09:09:00.846Z,27.67
2019-05-25T09:10:04.298Z,27.06
2019-05-25T09:11:00.807Z,27.13
2019-05-25T09:12:02.379Z,25.94
2019-05-25T09:13:00.785Z,25.61
2019-05-25T09:14:00.782Z,26.75
2019-05-25T09:15:05.984Z,28.15
2019-05-25T09:16:00.773Z,28.02
2019-05-25T09:17:00.745Z,27.44
2019-05-25T09:18:00.751Z,28.58
2019-05-25T09:19:00.734Z,28.83
2019-05-25T09:20:04.512Z,29.92
2019-05-25T09:21:00.714Z,31.43
2019-05-25T09:22:02.956Z,33.16
2019-05-25T09:23:00.763Z,34.91
2019-05-25T09:24:00.949Z,36.05
2019-05-25T09:25:03.111Z,34.81
2019-05-25T09:26:00.663Z,34.47
2019-05-25T09:27:00.672Z,34.42
2019-05-25T09:28:00.673Z,34.46
2019-05-25T09:29:04.642Z,30.45
2019-05-25T09:30:04.436Z,28.86
2019-05-25T09:31:00.625Z,28.36
2019-05-25T09:32:00.619Z,29.67
2019-05-25T09:33:00.607Z,30.08
2019-05-25T09:34:00.630Z,27.14
2019-05-25T09:35:04.606Z,25.28
2019-05-25T09:36:00.579Z,23.83
2019-05-25T09:37:00.568Z,22.90
2019-05-25T09:38:00.573Z,21.44
2019-05-25T09:39:00.570Z,23.05
2019-05-25T09:40:00.533Z,26.05
2019-05-25T09:41:03.062Z,26.72
2019-05-25T09:42:00.533Z,28.98
2019-05-25T09:43:00.525Z,28.64
2019-05-25T09:44:00.512Z,29.41
2019-05-25T09:45:00.523Z,31.44
2019-05-25T09:46:03.446Z,30.53
2019-05-25T09:47:00.470Z,29.70
2019-05-25T09:48:00.458Z,29.78
2019-05-25T09:49:00.451Z,30.00
2019-05-25T09:50:00.449Z,31.09
2019-05-25T09:51:04.029Z,31.12
2019-05-25T09:52:00.419Z,29.09
2019-05-25T09:53:00.419Z,29.21
2019-05-25T09:54:00.411Z,30.15
2019-05-25T09:55:00.398Z,31.21
2019-05-25T09:56:05.292Z,32.62
2019-05-25T09:57:00.414Z,33.03
2019-05-25T09:58:00.407Z,32.93
2019-05-25T09:59:00.389Z,31.70
2019-05-25T10:00:00.352Z,29.80
2019-05-25T10:01:04.297Z,28.29
2019-05-25T10:02:00.341Z,28.34
2019-05-25T10:03:00.326Z,29.37
2019-05-25T10:04:00.338Z,29.04
2019-05-25T10:05:00.381Z,27.81
2019-05-25T10:06:12.281Z,27.22
2019-05-25T10:07:01.310Z,27.75
2019-05-25T10:08:00.278Z,26.95
2019-05-25T10:09:00.265Z,26.95
2019-05-25T10:10:00.259Z,27.66
2019-05-25T10:11:04.771Z,28.00
2019-05-25T10:12:00.253Z,29.06
2019-05-25T10:13:00.225Z,29.57
2019-05-25T10:14:00.220Z,28.92
2019-05-25T10:15:00.212Z,28.17
2019-05-25T10:16:04.311Z,27.77
2019-05-25T10:17:00.191Z,28.85
2019-05-25T10:18:00.184Z,28.93
2019-05-25T10:19:00.177Z,28.67
2019-05-25T10:20:00.165Z,27.94
2019-05-25T10:21:04.433Z,27.87
2019-05-25T10:22:00.150Z,28.46
2019-05-25T10:23:00.141Z,29.08
2019-05-25T10:24:00.119Z,28.22
2019-05-25T10:25:00.151Z,27.82
2019-05-25T10:26:06.108Z,27.22
2019-05-25T10:27:00.123Z,25.42
2019-05-25T10:28:00.089Z,24.13
2019-05-25T10:29:00.082Z,23.69
2019-05-25T10:30:00.080Z,24.06
2019-05-25T10:31:00.097Z,24.00
2019-05-25T10:32:00.040Z,23.90
2019-05-25T10:33:00.043Z,24.16
2019-05-25T10:34:00.025Z,24.31
2019-05-25T10:35:00.019Z,24.22
2019-05-25T10:36:00.013Z,23.91
2019-05-25T10:37:00.018Z,23.91
2019-05-25T10:37:59.999Z,23.88
2019-05-25T10:38:59.973Z,23.91
2019-05-25T10:39:59.968Z,23.51
2019-05-25T10:40:59.961Z,22.52
2019-05-25T10:41:59.963Z,22.21
2019-05-25T10:42:59.931Z,22.10
2019-05-25T10:43:59.937Z,22.35
2019-05-25T10:44:59.911Z,22.57
2019-05-25T10:45:59.904Z,22.60
2019-05-25T10:47:00.063Z,22.94
2019-05-25T10:47:59.894Z,22.65
2019-05-25T10:48:59.879Z,22.10
2019-05-25T10:49:59.860Z,21.37
2019-05-25T10:50:59.848Z,21.40
2019-05-25T10:51:59.855Z,21.82
2019-05-25T10:52:59.828Z,22.36
2019-05-25T10:53:59.852Z,22.77
2019-05-25T10:54:59.816Z,22.79
2019-05-25T10:55:59.796Z,22.30
2019-05-25T10:56:59.808Z,22.18
2019-05-25T10:57:59.781Z,21.94
2019-05-25T10:58:59.779Z,22.09
2019-05-25T10:59:59.768Z,22.05
2019-05-25T11:00:59.751Z,22.35
2019-05-25T11:01:59.778Z,22.17
2019-05-25T11:02:59.723Z,22.21
2019-05-25T11:03:59.710Z,22.07
2019-05-25T11:04:59.705Z,22.02
2019-05-25T11:05:59.695Z,21.90
2019-05-25T11:06:59.726Z,21.84
2019-05-25T11:07:59.691Z,21.72
2019-05-25T11:08:59.666Z,21.98
2019-05-25T11:09:59.676Z,22.35
2019-05-25T11:10:59.650Z,22.52
2019-05-25T11:11:59.667Z,22.62
2019-05-25T11:12:59.623Z,22.72
2019-05-25T11:13:59.614Z,22.86
2019-05-25T11:14:59.602Z,22.54
2019-05-25T11:15:59.586Z,22.43
2019-05-25T11:16:59.612Z,21.99
2019-05-25T11:17:59.571Z,21.64
2019-05-25T11:18:59.567Z,21.01
2019-05-25T11:19:59.550Z,20.85
2019-05-25T11:20:59.536Z,20.52
2019-05-25T11:21:59.541Z,20.52
2019-05-25T11:22:59.520Z,20.61
2019-05-25T11:23:59.499Z,21.10
2019-05-25T11:24:59.491Z,21.43
2019-05-25T11:25:59.529Z,21.82
2019-05-25T11:26:59.806Z,21.96
2019-05-25T11:27:59.455Z,22.14
2019-05-25T11:28:59.449Z,22.47
2019-05-25T11:30:08.408Z,22.55
2019-05-25T11:31:00.433Z,22.58
2019-05-25T11:32:03.985Z,22.42
2019-05-25T11:33:00.405Z,22.72
2019-05-25T11:33:59.398Z,22.68
2019-05-25T11:34:59.384Z,22.77
2019-05-25T11:35:59.374Z,22.83
2019-05-25T11:36:59.380Z,22.80
2019-05-25T11:37:59.372Z,22.76
2019-05-25T11:38:59.349Z,22.57
2019-05-25T11:39:59.351Z,22.72
2019-05-25T11:40:59.327Z,22.83
2019-05-25T11:41:59.327Z,22.76
2019-05-25T11:42:59.369Z,22.67
2019-05-25T11:43:59.301Z,22.09
2019-05-25T11:44:59.284Z,21.58
2019-05-25T11:45:59.269Z,21.10
2019-05-25T11:46:59.272Z,21.06
2019-05-25T11:47:59.241Z,20.91
2019-05-25T11:48:59.240Z,21.24
2019-05-25T11:49:59.229Z,21.06
2019-05-25T11:50:59.216Z,21.21
2019-05-25T11:51:59.222Z,21.40
2019-05-25T11:52:59.201Z,21.10
2019-05-25T11:53:59.187Z,20.91
2019-05-25T11:54:59.167Z,20.88
2019-05-25T11:55:59.174Z,20.95
2019-05-25T11:56:59.172Z,20.85
2019-05-25T11:57:59.169Z,20.76
2019-05-25T11:58:59.136Z,20.52
2019-05-25T11:59:59.115Z,20.52
2019-05-25T12:00:59.106Z,20.39
2019-05-25T12:01:59.102Z,20.67
2019-05-25T12:02:59.127Z,21.13
2019-05-25T12:03:59.077Z,21.31
2019-05-25T12:04:59.075Z,21.29
2019-05-25T12:05:59.059Z,21.16
2019-05-25T12:06:59.069Z,21.27
2019-05-25T12:07:59.051Z,21.01
2019-05-25T12:08:59.017Z,20.67
2019-05-25T12:09:59.009Z,20.76
2019-05-25T12:10:59.050Z,20.79
2019-05-25T12:11:58.990Z,20.97
2019-05-25T12:12:59.025Z,21.12
2019-05-25T12:13:58.964Z,21.29
2019-05-25T12:14:58.952Z,21.28
2019-05-25T12:15:58.957Z,21.31
2019-05-25T12:16:58.947Z,20.89
2019-05-25T12:17:58.941Z,20.59
2019-05-25T12:18:58.910Z,19.96
2019-05-25T12:19:58.899Z,19.78
2019-05-25T12:20:58.894Z,19.80
2019-05-25T12:21:58.896Z,19.96
2019-05-25T12:22:58.896Z,20.14
2019-05-25T12:23:58.866Z,20.32
2019-05-25T12:24:58.857Z,20.42
2019-05-25T12:25:58.862Z,20.43
2019-05-25T12:26:58.824Z,20.26
2019-05-25T12:27:58.831Z,20.31
2019-05-25T12:28:58.810Z,19.96
2019-05-25T12:29:58.800Z,19.98
2019-05-25T12:30:58.806Z,20.18
2019-05-25T12:32:04.111Z,20.33
2019-05-25T12:32:59.776Z,20.38
2019-05-25T12:33:58.757Z,20.29
2019-05-25T12:34:58.754Z,20.24
2019-05-25T12:35:58.746Z,20.29
2019-05-25T12:36:58.731Z,20.42
2019-05-25T12:37:58.722Z,20.54
2019-05-25T12:38:58.702Z,20.52
2019-05-25T12:39:58.687Z,20.24
2019-05-25T12:40:58.677Z,20.13
2019-05-25T12:41:58.680Z,20.20
2019-05-25T12:42:58.683Z,20.29
2019-05-25T12:43:58.655Z,20.39
2019-05-25T12:44:58.779Z,20.31
2019-05-25T12:45:58.633Z,20.32
2019-05-25T12:46:58.623Z,20.35
2019-05-25T12:47:58.667Z,20.51
2019-05-25T12:48:58.618Z,20.39
2019-05-25T12:49:58.583Z,20.48
2019-05-25T12:50:58.567Z,20.59
2019-05-25T12:51:58.561Z,20.69
2019-05-25T12:52:58.570Z,20.87
2019-05-25T12:53:58.546Z,21.01